SBOSBO INV / EGPE
Speedbird OnlineSpeedbird Online INV / EGPE

Inverness Airport
00:34 3°C

Location Inverness, United Kingdom
Latitude: 57.54249954223633
Longitude: -4.047500133514404
Web Airport Website | Wikipedia
Altitude 9 Meter / 31 Feet
Distance 723 KM / 449 Miles
from London.
Time Zone UTC 0 hours (Europe/London)
Codes IATA: INV
ICAO: EGPE
Runways
RunwayLength (m)Surface
051887Asphalt
11700Asphalt
231887Asphalt
29700Asphalt
Radio
TypeDescriptionFrequency
APPAPP122.605
ATISATIS109.2
RDRRDR122.605
TWRInverness Tower118.405
TWRTWR (when TWR/APP combined)122.605
Live ATC
METAR EGPE 081420Z 21027G43KT 9999 FEW032 09/03 Q1010
TAF
Weather As Of 09 Feb 2023 00:34
Description Scattered clouds
Wind 26 km/h from South-West (220°)
Cloud Cover 40%
Precipitation Rain: none, Snow: none
Sunrise 08:01
Sunset 16:59
Lounges Aspire Lounge, Main terminal
Rotations During the last 90 days there were
144 flights from LHR
145 flights to LHR



Support Speedbird Online

© 2017-2023 Speedbird Online